createdAt,value
2017-08-06T00:00:41.278Z,99.90
2017-08-06T00:03:08.738Z,99.90
2017-08-06T00:05:36.197Z,99.90
2017-08-06T00:08:03.652Z,99.90
2017-08-06T00:10:31.109Z,99.90
2017-08-06T00:12:58.684Z,99.90
2017-08-06T00:15:26.231Z,99.90
2017-08-06T00:17:53.669Z,99.90
2017-08-06T00:20:21.540Z,99.90
2017-08-06T00:22:49.114Z,99.90
2017-08-06T00:25:16.574Z,99.90
2017-08-06T00:27:44.029Z,99.90
2017-08-06T00:30:11.483Z,99.90
2017-08-06T00:32:38.941Z,99.90
2017-08-06T00:35:06.390Z,99.90
2017-08-06T00:37:33.857Z,99.90
2017-08-06T00:40:01.309Z,99.90
2017-08-06T00:42:28.778Z,99.90
2017-08-06T00:44:56.225Z,99.90
2017-08-06T00:47:23.682Z,99.90
2017-08-06T00:49:51.133Z,99.90
2017-08-06T00:52:18.618Z,99.90
2017-08-06T00:54:46.831Z,99.90
2017-08-06T00:57:14.279Z,99.90
2017-08-06T00:59:41.743Z,99.90
2017-08-06T01:02:09.203Z,99.90
2017-08-06T01:04:36.675Z,99.90
2017-08-06T01:07:04.141Z,99.90
2017-08-06T01:09:31.598Z,99.90
2017-08-06T01:11:59.050Z,99.90
2017-08-06T01:14:26.513Z,99.90
2017-08-06T01:16:53.961Z,99.90
2017-08-06T01:19:21.426Z,99.90
2017-08-06T01:21:48.980Z,99.90
2017-08-06T01:24:16.547Z,99.90
2017-08-06T01:26:43.995Z,99.90
2017-08-06T01:29:11.554Z,99.90
2017-08-06T01:31:39.009Z,99.90
2017-08-06T01:34:06.565Z,99.90
2017-08-06T01:36:34.021Z,99.90
2017-08-06T01:39:01.472Z,99.90
2017-08-06T01:41:28.930Z,99.90
2017-08-06T01:43:56.378Z,99.90
2017-08-06T01:46:23.851Z,99.90
2017-08-06T01:48:51.321Z,99.90
2017-08-06T01:51:18.769Z,99.90
2017-08-06T01:53:46.221Z,99.90
2017-08-06T01:56:13.782Z,99.90
2017-08-06T01:58:41.229Z,99.90
2017-08-06T02:01:08.676Z,99.90
2017-08-06T02:03:36.149Z,99.90
2017-08-06T02:06:03.602Z,99.90
2017-08-06T02:08:31.054Z,99.90
2017-08-06T02:10:58.499Z,99.90
2017-08-06T02:13:25.969Z,99.90
2017-08-06T02:15:53.422Z,99.90
2017-08-06T02:18:20.869Z,99.90
2017-08-06T02:20:48.325Z,99.90
2017-08-06T02:23:15.793Z,99.90
2017-08-06T02:25:43.361Z,99.90
2017-08-06T02:28:10.835Z,99.90
2017-08-06T02:30:38.277Z,99.90
2017-08-06T02:33:05.750Z,99.90
2017-08-06T02:35:33.206Z,99.90
2017-08-06T02:38:01.471Z,99.90
2017-08-06T02:40:28.933Z,99.90
2017-08-06T02:42:57.146Z,99.90
2017-08-06T02:45:24.602Z,99.90
2017-08-06T02:47:52.064Z,99.90
2017-08-06T02:50:19.526Z,99.90
2017-08-06T02:52:46.993Z,99.90
2017-08-06T02:55:14.455Z,99.90
2017-08-06T02:57:41.910Z,99.90
2017-08-06T03:00:09.370Z,99.90
2017-08-06T03:02:36.826Z,99.90
2017-08-06T03:05:04.388Z,99.90
2017-08-06T03:07:31.835Z,99.90
2017-08-06T03:09:59.285Z,99.90
2017-08-06T03:12:26.750Z,99.90
2017-08-06T03:14:54.221Z,99.90
2017-08-06T03:17:21.795Z,99.90
2017-08-06T03:19:49.258Z,99.90
2017-08-06T03:22:17.515Z,99.90
2017-08-06T03:24:44.972Z,99.90
2017-08-06T03:27:12.430Z,99.90
2017-08-06T03:29:39.892Z,99.90
2017-08-06T03:32:07.354Z,99.90
2017-08-06T03:34:34.805Z,99.90
2017-08-06T03:37:02.261Z,99.90
2017-08-06T03:39:29.718Z,99.90
2017-08-06T03:41:57.400Z,99.90
2017-08-06T03:44:24.866Z,99.90
2017-08-06T03:46:52.321Z,99.90
2017-08-06T03:49:19.838Z,99.90
2017-08-06T03:51:47.291Z,99.90
2017-08-06T03:54:14.747Z,99.90
2017-08-06T03:56:42.193Z,99.90
2017-08-06T03:59:09.653Z,99.90
2017-08-06T04:01:37.126Z,99.90
2017-08-06T04:04:04.569Z,99.90
2017-08-06T04:06:32.022Z,99.90
2017-08-06T04:08:59.600Z,99.90
2017-08-06T04:11:27.053Z,99.90
2017-08-06T04:13:54.614Z,99.90
2017-08-06T04:16:22.054Z,99.90
2017-08-06T04:18:49.522Z,99.90
2017-08-06T04:21:16.988Z,99.90
2017-08-06T04:23:44.530Z,99.90
2017-08-06T04:26:11.985Z,99.90
2017-08-06T04:28:39.438Z,99.90
2017-08-06T04:31:07.001Z,99.90
2017-08-06T04:33:34.449Z,99.90
2017-08-06T04:36:01.915Z,99.90
2017-08-06T04:38:29.357Z,99.90
2017-08-06T04:40:56.827Z,99.90
2017-08-06T04:43:24.278Z,99.90
2017-08-06T04:45:51.742Z,99.90
2017-08-06T04:48:19.198Z,99.90
2017-08-06T04:50:46.666Z,99.90
2017-08-06T04:53:14.117Z,99.90
2017-08-06T04:55:41.568Z,99.90
2017-08-06T04:58:09.022Z,99.90
2017-08-06T05:00:36.589Z,99.90
2017-08-06T05:03:04.066Z,99.90
2017-08-06T05:05:31.512Z,99.90
2017-08-06T05:07:58.970Z,99.90
2017-08-06T05:10:26.527Z,99.90
2017-08-06T05:12:54.801Z,99.90
2017-08-06T05:15:22.254Z,99.90
2017-08-06T05:17:49.712Z,99.90
2017-08-06T05:20:17.181Z,99.90
2017-08-06T05:22:45.449Z,99.90
2017-08-06T05:25:12.901Z,99.90
2017-08-06T05:27:40.362Z,99.90
2017-08-06T05:30:07.825Z,99.90
2017-08-06T05:32:35.276Z,99.90
2017-08-06T05:35:02.721Z,99.90
2017-08-06T05:37:30.268Z,99.90
2017-08-06T05:39:57.835Z,99.90
2017-08-06T05:42:25.285Z,99.90
2017-08-06T05:44:52.733Z,99.90
2017-08-06T05:47:20.207Z,99.90
2017-08-06T05:49:47.665Z,99.90
2017-08-06T05:52:15.122Z,99.90
2017-08-06T05:54:42.576Z,99.90
2017-08-06T05:57:10.135Z,99.90
2017-08-06T05:59:37.583Z,99.90
2017-08-06T06:02:05.046Z,99.90
2017-08-06T06:04:32.491Z,99.90
2017-08-06T06:07:00.058Z,99.60
2017-08-06T06:09:27.518Z,95.80
2017-08-06T06:11:54.979Z,94.10
2017-08-06T06:14:22.436Z,93.20
2017-08-06T06:16:49.892Z,90.30
2017-08-06T06:19:17.345Z,83.30
2017-08-06T06:21:44.806Z,73.20
2017-08-06T06:24:12.263Z,67.50
2017-08-06T06:26:39.823Z,65.80
2017-08-06T06:29:07.283Z,65.80
2017-08-06T06:31:34.822Z,65.70
2017-08-06T06:34:08.287Z,61.30
2017-08-06T06:36:39.125Z,62.40
2017-08-06T06:39:06.630Z,68.20
2017-08-06T06:41:34.169Z,77.30
2017-08-06T06:44:01.805Z,83.80
2017-08-06T06:46:29.261Z,89.20
2017-08-06T06:48:56.746Z,93.50
2017-08-06T06:51:24.310Z,95.60
2017-08-06T06:53:51.864Z,98.50
2017-08-06T06:56:19.421Z,99.90
2017-08-06T06:58:46.983Z,99.90
2017-08-06T07:01:14.451Z,99.90
2017-08-06T07:03:41.906Z,99.90
2017-08-06T07:06:09.353Z,99.40
2017-08-06T07:08:36.925Z,99.90
2017-08-06T07:11:04.377Z,99.90
2017-08-06T07:13:31.837Z,99.90
2017-08-06T07:15:59.289Z,99.90
2017-08-06T07:18:26.841Z,99.90
2017-08-06T07:20:54.290Z,99.90
2017-08-06T07:23:21.739Z,99.90
2017-08-06T07:25:49.189Z,99.90
2017-08-06T07:28:16.650Z,99.90
2017-08-06T07:30:44.105Z,99.90
2017-08-06T07:33:11.565Z,99.90
2017-08-06T07:35:39.022Z,99.90
2017-08-06T07:38:06.489Z,99.90
2017-08-06T07:40:33.959Z,99.90
2017-08-06T07:43:01.399Z,99.90
2017-08-06T07:45:28.868Z,99.90
2017-08-06T07:47:56.317Z,99.90
2017-08-06T07:50:23.770Z,99.90
2017-08-06T07:52:51.217Z,99.90
2017-08-06T07:55:18.681Z,99.90
2017-08-06T07:57:46.131Z,99.90
2017-08-06T08:00:13.618Z,99.90
2017-08-06T08:02:41.057Z,99.90
2017-08-06T08:05:08.510Z,99.90
2017-08-06T08:07:36.070Z,99.90
2017-08-06T08:10:03.517Z,99.90
2017-08-06T08:12:30.978Z,99.90
2017-08-06T08:14:58.425Z,99.90
2017-08-06T08:17:25.897Z,99.90
2017-08-06T08:19:53.367Z,99.60
2017-08-06T08:22:20.842Z,99.90
2017-08-06T08:24:49.070Z,99.90
2017-08-06T08:27:16.567Z,99.90
2017-08-06T08:29:44.029Z,98.20
2017-08-06T08:32:11.471Z,99.80
2017-08-06T08:34:38.937Z,99.00
2017-08-06T08:37:06.382Z,98.40
2017-08-06T08:39:33.836Z,99.20
2017-08-06T08:42:01.281Z,98.90
2017-08-06T08:44:28.750Z,97.70
2017-08-06T08:46:56.197Z,99.90
2017-08-06T08:49:23.642Z,97.70
2017-08-06T08:51:51.098Z,96.40
2017-08-06T08:54:18.556Z,95.80
2017-08-06T08:56:46.022Z,96.10
2017-08-06T08:59:13.489Z,96.30
2017-08-06T09:01:40.941Z,97.90
2017-08-06T09:04:08.390Z,95.50
2017-08-06T09:06:35.949Z,96.10
2017-08-06T09:09:03.393Z,95.50
2017-08-06T09:11:30.856Z,94.30
2017-08-06T09:13:58.301Z,93.90
2017-08-06T09:16:25.765Z,92.90
2017-08-06T09:18:53.225Z,93.10
2017-08-06T09:21:20.698Z,93.80
2017-08-06T09:23:48.151Z,91.70
2017-08-06T09:26:15.598Z,92.70
2017-08-06T09:28:43.061Z,90.60
2017-08-06T09:31:10.505Z,91.80
2017-08-06T09:33:37.953Z,91.50
2017-08-06T09:36:05.405Z,90.90
2017-08-06T09:38:32.853Z,89.80
2017-08-06T09:41:00.355Z,89.80
2017-08-06T09:43:27.802Z,85.80
2017-08-06T09:45:55.254Z,82.90
2017-08-06T09:48:22.724Z,80.40
2017-08-06T09:50:50.180Z,79.50
2017-08-06T09:53:17.621Z,80.60
2017-08-06T09:55:45.177Z,75.40
2017-08-06T09:58:12.630Z,76.60
2017-08-06T10:00:40.156Z,75.60
2017-08-06T10:03:07.649Z,76.70
2017-08-06T10:05:35.139Z,75.20
2017-08-06T10:08:02.587Z,74.50
2017-08-06T10:10:30.038Z,72.50
2017-08-06T10:12:57.584Z,72.50
2017-08-06T10:15:25.151Z,68.00
2017-08-06T10:17:52.612Z,68.60
2017-08-06T10:20:20.073Z,72.10
2017-08-06T10:22:47.516Z,71.60
2017-08-06T10:25:15.070Z,69.90
2017-08-06T10:27:42.526Z,70.90
2017-08-06T10:30:09.973Z,71.60
2017-08-06T10:32:37.433Z,68.30
2017-08-06T10:35:04.870Z,68.80
2017-08-06T10:37:32.325Z,65.90
2017-08-06T10:39:59.781Z,68.20
2017-08-06T10:42:27.234Z,66.70
2017-08-06T10:44:54.723Z,67.80
2017-08-06T10:47:22.178Z,64.80
2017-08-06T10:49:49.613Z,67.00
2017-08-06T10:52:17.082Z,73.50
2017-08-06T10:54:44.538Z,64.50
2017-08-06T10:57:11.993Z,64.40
2017-08-06T10:59:39.457Z,63.90
2017-08-06T11:02:06.903Z,64.90
2017-08-06T11:04:34.378Z,64.00
2017-08-06T11:07:01.822Z,69.40
2017-08-06T11:09:29.290Z,69.00
2017-08-06T11:11:56.746Z,67.20
2017-08-06T11:14:24.208Z,67.00
2017-08-06T11:16:51.666Z,68.30
2017-08-06T11:19:19.122Z,65.90
2017-08-06T11:21:46.582Z,62.80
2017-08-06T11:24:14.050Z,64.80
2017-08-06T11:26:42.274Z,67.70
2017-08-06T11:29:09.763Z,67.50
2017-08-06T11:31:37.313Z,68.90
2017-08-06T11:34:04.761Z,67.80
2017-08-06T11:36:32.222Z,65.90
2017-08-06T11:38:59.677Z,64.70
2017-08-06T11:41:27.135Z,64.80
2017-08-06T11:43:54.596Z,63.40
2017-08-06T11:46:22.049Z,63.10
2017-08-06T11:48:49.495Z,63.10
2017-08-06T11:51:16.951Z,62.10
2017-08-06T11:53:44.434Z,64.70
2017-08-06T11:56:11.903Z,63.90
2017-08-06T11:58:39.349Z,64.30
2017-08-06T12:01:06.801Z,64.10
2017-08-06T12:03:34.257Z,62.80
2017-08-06T12:06:01.805Z,65.20
2017-08-06T12:08:29.266Z,63.50
2017-08-06T12:10:56.716Z,65.10
2017-08-06T12:13:24.165Z,64.40
2017-08-06T12:15:51.622Z,59.90
2017-08-06T12:18:19.073Z,64.80
2017-08-06T12:20:46.537Z,61.00
2017-08-06T12:23:14.008Z,62.50
2017-08-06T12:25:41.453Z,57.50
2017-08-06T12:28:09.032Z,57.40
2017-08-06T12:30:36.478Z,61.60
2017-08-06T12:33:04.031Z,65.00
2017-08-06T12:35:31.469Z,59.90
2017-08-06T12:37:58.914Z,58.90
2017-08-06T12:40:26.401Z,59.10
2017-08-06T12:42:53.841Z,58.70
2017-08-06T12:45:21.332Z,61.60
2017-08-06T12:47:48.777Z,61.40
2017-08-06T12:50:16.237Z,59.50
2017-08-06T12:52:43.681Z,58.50
2017-08-06T12:55:11.246Z,60.40
2017-08-06T12:57:38.700Z,58.80
2017-08-06T13:00:06.177Z,58.30
2017-08-06T13:02:33.613Z,59.60
2017-08-06T13:05:01.077Z,57.60
2017-08-06T13:07:28.521Z,58.00
2017-08-06T13:09:55.977Z,58.10
2017-08-06T13:12:23.434Z,58.40
2017-08-06T13:14:50.886Z,56.60
2017-08-06T13:17:18.341Z,59.40
2017-08-06T13:19:45.805Z,60.80
2017-08-06T13:22:13.258Z,57.70
2017-08-06T13:24:40.713Z,59.50
2017-08-06T13:27:08.269Z,57.70
2017-08-06T13:29:35.724Z,56.90
2017-08-06T13:32:03.202Z,59.20
2017-08-06T13:34:30.653Z,61.40
2017-08-06T13:36:58.101Z,56.10
2017-08-06T13:39:25.554Z,56.00
2017-08-06T13:41:53.005Z,55.50
2017-08-06T13:44:20.456Z,58.00
2017-08-06T13:46:47.908Z,56.70
2017-08-06T13:49:15.381Z,60.00
2017-08-06T13:51:42.837Z,55.90
2017-08-06T13:54:10.295Z,57.00
2017-08-06T13:56:37.737Z,58.20
2017-08-06T13:59:05.192Z,56.70
2017-08-06T14:01:32.641Z,55.90
2017-08-06T14:04:00.093Z,57.90
2017-08-06T14:06:27.582Z,59.60
2017-08-06T14:08:55.147Z,56.60
2017-08-06T14:11:22.598Z,55.80
2017-08-06T14:13:50.063Z,55.30
2017-08-06T14:16:17.517Z,55.70
2017-08-06T14:18:44.978Z,57.40
2017-08-06T14:21:12.522Z,59.70
2017-08-06T14:23:39.982Z,56.30
2017-08-06T14:26:07.441Z,55.10
2017-08-06T14:28:34.899Z,57.00
2017-08-06T14:31:02.350Z,54.20
2017-08-06T14:33:29.796Z,57.00
2017-08-06T14:35:57.249Z,55.90
2017-08-06T14:38:24.698Z,54.00
2017-08-06T14:40:52.158Z,54.00
2017-08-06T14:43:19.601Z,52.90
2017-08-06T14:45:47.082Z,53.50
2017-08-06T14:48:14.538Z,53.70
2017-08-06T14:50:42.011Z,54.00
2017-08-06T14:53:09.445Z,55.00
2017-08-06T14:55:36.899Z,55.60
2017-08-06T14:58:04.362Z,55.10
2017-08-06T15:00:31.825Z,55.40
2017-08-06T15:02:59.382Z,57.00
2017-08-06T15:05:26.825Z,58.50
2017-08-06T15:07:54.304Z,58.20
2017-08-06T15:10:21.753Z,57.00
2017-08-06T15:12:49.210Z,55.50
2017-08-06T15:15:16.670Z,55.70
2017-08-06T15:17:44.113Z,59.00
2017-08-06T15:20:11.566Z,55.20
2017-08-06T15:22:39.015Z,58.40
2017-08-06T15:25:06.497Z,55.10
2017-08-06T15:27:33.938Z,54.40
2017-08-06T15:30:01.501Z,54.20
2017-08-06T15:32:28.939Z,54.40
2017-08-06T15:34:56.393Z,54.60
2017-08-06T15:37:23.883Z,55.10
2017-08-06T15:39:51.337Z,54.70
2017-08-06T15:42:18.807Z,54.80
2017-08-06T15:44:46.265Z,56.70
2017-08-06T15:47:14.514Z,53.10
2017-08-06T15:49:41.955Z,52.70
2017-08-06T15:52:10.298Z,53.60
2017-08-06T15:54:38.613Z,52.90
2017-08-06T15:57:06.067Z,52.90
2017-08-06T15:59:33.534Z,56.20
2017-08-06T16:02:01.096Z,53.90
2017-08-06T16:04:28.532Z,56.20
2017-08-06T16:06:55.988Z,55.30
2017-08-06T16:09:23.470Z,55.30
2017-08-06T16:11:50.927Z,55.20
2017-08-06T16:14:18.379Z,55.80
2017-08-06T16:16:45.844Z,54.70
2017-08-06T16:19:13.293Z,53.10
2017-08-06T16:21:40.858Z,53.30
2017-08-06T16:24:08.314Z,54.00
2017-08-06T16:26:35.765Z,52.60
2017-08-06T16:29:03.226Z,53.70
2017-08-06T16:31:30.670Z,54.20
2017-08-06T16:33:58.122Z,54.40
2017-08-06T16:36:25.583Z,56.70
2017-08-06T16:38:53.046Z,55.30
2017-08-06T16:41:20.497Z,54.00
2017-08-06T16:43:47.969Z,54.50
2017-08-06T16:46:15.414Z,53.10
2017-08-06T16:48:42.865Z,53.40
2017-08-06T16:51:10.334Z,53.10
2017-08-06T16:53:37.790Z,54.60
2017-08-06T16:56:05.250Z,52.60
2017-08-06T16:58:32.701Z,53.80
2017-08-06T17:01:00.147Z,54.60
2017-08-06T17:03:27.706Z,54.50
2017-08-06T17:05:55.164Z,55.10
2017-08-06T17:08:22.609Z,55.90
2017-08-06T17:10:50.065Z,56.80
2017-08-06T17:13:17.514Z,56.70
2017-08-06T17:15:44.974Z,57.30
2017-08-06T17:18:12.429Z,58.00
2017-08-06T17:20:39.905Z,58.30
2017-08-06T17:23:07.366Z,57.90
2017-08-06T17:25:34.826Z,59.10
2017-08-06T17:28:02.278Z,58.70
2017-08-06T17:30:29.732Z,60.00
2017-08-06T17:32:57.196Z,60.50
2017-08-06T17:35:24.640Z,59.80
2017-08-06T17:37:52.090Z,59.90
2017-08-06T17:40:19.544Z,59.70
2017-08-06T17:42:46.997Z,59.60
2017-08-06T17:45:14.445Z,60.40
2017-08-06T17:47:42.025Z,60.30
2017-08-06T17:50:09.586Z,59.90
2017-08-06T17:52:37.143Z,60.30
2017-08-06T17:55:04.693Z,60.40
2017-08-06T17:57:32.146Z,61.00
2017-08-06T17:59:59.602Z,62.40
2017-08-06T18:02:27.052Z,62.40
2017-08-06T18:04:54.506Z,62.50
2017-08-06T18:07:21.954Z,62.20
2017-08-06T18:09:49.448Z,62.10
2017-08-06T18:12:17.002Z,62.80
2017-08-06T18:14:44.470Z,62.80
2017-08-06T18:17:11.925Z,63.20
2017-08-06T18:19:39.389Z,63.60
2017-08-06T18:22:06.934Z,64.50
2017-08-06T18:24:34.403Z,64.20
2017-08-06T18:27:01.870Z,62.70
2017-08-06T18:29:29.325Z,64.60
2017-08-06T18:31:57.546Z,65.50
2017-08-06T18:34:24.998Z,65.10
2017-08-06T18:36:54.074Z,65.90
2017-08-06T18:39:21.522Z,67.00
2017-08-06T18:41:48.981Z,66.40
2017-08-06T18:44:16.497Z,67.00
2017-08-06T18:46:43.947Z,67.60
2017-08-06T18:49:11.510Z,69.90
2017-08-06T18:51:38.961Z,69.60
2017-08-06T18:54:06.440Z,69.40
2017-08-06T18:56:33.898Z,69.80
2017-08-06T18:59:01.435Z,70.70
2017-08-06T19:01:28.901Z,72.40
2017-08-06T19:03:56.351Z,73.90
2017-08-06T19:06:23.804Z,74.40
2017-08-06T19:08:51.252Z,75.20
2017-08-06T19:11:18.822Z,76.20
2017-08-06T19:13:46.320Z,74.80
2017-08-06T19:16:14.573Z,80.10
2017-08-06T19:18:42.983Z,80.10
2017-08-06T19:21:10.489Z,80.20
2017-08-06T19:23:37.949Z,82.40
2017-08-06T19:26:05.398Z,84.60
2017-08-06T19:28:32.860Z,81.80
2017-08-06T19:31:00.309Z,83.70
2017-08-06T19:33:27.765Z,85.50
2017-08-06T19:35:55.227Z,88.80
2017-08-06T19:38:22.699Z,89.00
2017-08-06T19:40:50.248Z,89.10
2017-08-06T19:43:17.706Z,88.80
2017-08-06T19:45:45.167Z,89.70
2017-08-06T19:48:12.617Z,87.50
2017-08-06T19:50:40.069Z,90.90
2017-08-06T19:53:07.642Z,90.60
2017-08-06T19:55:35.203Z,91.30
2017-08-06T19:58:02.658Z,91.70
2017-08-06T20:00:30.122Z,94.00
2017-08-06T20:02:57.573Z,93.80
2017-08-06T20:05:25.128Z,94.50
2017-08-06T20:07:52.581Z,94.90
2017-08-06T20:10:20.051Z,94.60
2017-08-06T20:12:48.304Z,95.60
2017-08-06T20:15:15.777Z,95.70
2017-08-06T20:17:43.223Z,96.00
2017-08-06T20:20:10.681Z,96.30
2017-08-06T20:22:38.189Z,93.70
2017-08-06T20:25:05.628Z,94.00
2017-08-06T20:27:33.090Z,94.50
2017-08-06T20:30:00.541Z,97.00
2017-08-06T20:32:28.006Z,97.60
2017-08-06T20:34:55.522Z,97.20
2017-08-06T20:37:22.984Z,97.30
2017-08-06T20:39:50.531Z,97.60
2017-08-06T20:42:18.094Z,97.40
2017-08-06T20:44:45.563Z,98.20
2017-08-06T20:47:13.817Z,97.90
2017-08-06T20:49:41.275Z,97.90
2017-08-06T20:52:08.713Z,97.90
2017-08-06T20:54:36.182Z,97.80
2017-08-06T20:57:03.638Z,99.90
2017-08-06T20:59:31.214Z,99.20
2017-08-06T21:01:58.666Z,98.80
2017-08-06T21:04:26.222Z,99.90
2017-08-06T21:06:53.684Z,99.90
2017-08-06T21:09:21.142Z,99.90
2017-08-06T21:11:48.548Z,99.90
2017-08-06T21:14:16.043Z,99.90
2017-08-06T21:16:43.502Z,99.90
2017-08-06T21:19:10.981Z,99.90
2017-08-06T21:21:39.197Z,99.90
2017-08-06T21:24:06.756Z,99.90
2017-08-06T21:26:34.202Z,99.90
2017-08-06T21:29:01.658Z,99.90
2017-08-06T21:31:29.165Z,99.90
2017-08-06T21:33:56.720Z,99.90
2017-08-06T21:36:24.177Z,99.90
2017-08-06T21:38:51.630Z,99.90
2017-08-06T21:41:19.181Z,99.90
2017-08-06T21:43:46.634Z,99.90
2017-08-06T21:46:14.213Z,99.90
2017-08-06T21:48:41.658Z,99.90
2017-08-06T21:51:09.109Z,99.90
2017-08-06T21:53:36.645Z,99.90
2017-08-06T21:56:04.118Z,99.90
2017-08-06T21:58:31.581Z,99.90
2017-08-06T22:02:35.862Z,99.90
2017-08-06T22:05:03.375Z,99.90
2017-08-06T22:07:30.838Z,99.90
2017-08-06T22:09:58.388Z,99.90
2017-08-06T22:12:25.850Z,99.90
2017-08-06T22:14:53.398Z,99.90
2017-08-06T22:17:20.953Z,99.90
2017-08-06T22:19:48.407Z,99.90
2017-08-06T22:22:15.875Z,99.90
2017-08-06T22:24:43.325Z,99.90
2017-08-06T22:27:10.888Z,99.90
2017-08-06T22:29:38.349Z,99.90
2017-08-06T22:32:05.806Z,99.90
2017-08-06T22:34:33.262Z,99.90
2017-08-06T22:37:00.721Z,99.90
2017-08-06T22:39:28.198Z,99.90
2017-08-06T22:41:55.666Z,99.90
2017-08-06T22:44:23.877Z,99.90
2017-08-06T22:46:51.345Z,99.90
2017-08-06T22:49:18.881Z,99.90
2017-08-06T22:51:46.344Z,99.90
2017-08-06T22:54:13.807Z,99.90
2017-08-06T22:56:41.260Z,99.90
2017-08-06T22:59:08.738Z,99.90
2017-08-06T23:01:36.221Z,99.90
2017-08-06T23:04:04.473Z,99.90
2017-08-06T23:06:31.928Z,99.90
2017-08-06T23:08:59.385Z,99.90
2017-08-06T23:11:26.847Z,99.90
2017-08-06T23:13:54.301Z,99.90
2017-08-06T23:16:21.766Z,99.90
2017-08-06T23:18:49.222Z,99.90
2017-08-06T23:21:16.678Z,99.90
2017-08-06T23:23:44.130Z,99.90
2017-08-06T23:26:11.592Z,99.90
2017-08-06T23:28:39.055Z,99.90
2017-08-06T23:31:06.510Z,99.90
2017-08-06T23:33:34.746Z,99.90
2017-08-06T23:36:02.234Z,99.90
2017-08-06T23:38:29.694Z,99.90
2017-08-06T23:40:57.165Z,99.90
2017-08-06T23:43:25.384Z,99.90
2017-08-06T23:45:52.862Z,99.90
2017-08-06T23:48:20.293Z,99.90
2017-08-06T23:50:47.762Z,99.90
2017-08-06T23:53:15.218Z,99.90
2017-08-06T23:55:42.674Z,99.90
2017-08-06T23:58:10.153Z,99.90
